sensor_id;sensor_type;location;lat;lon;timestamp;temperature;humidity
67769;DHT22;54569;52.018;5.584;2023-04-24T00:00:57;10.40;85.20
67769;DHT22;54569;52.018;5.584;2023-04-24T00:03:23;10.40;84.90
67769;DHT22;54569;52.018;5.584;2023-04-24T00:05:49;10.40;85.30
67769;DHT22;54569;52.018;5.584;2023-04-24T00:08:15;10.40;85.00
67769;DHT22;54569;52.018;5.584;2023-04-24T00:10:41;10.40;85.60
67769;DHT22;54569;52.018;5.584;2023-04-24T00:13:06;10.40;84.80
67769;DHT22;54569;52.018;5.584;2023-04-24T00:15:32;10.40;85.40
67769;DHT22;54569;52.018;5.584;2023-04-24T00:17:58;10.40;84.40
67769;DHT22;54569;52.018;5.584;2023-04-24T00:20:24;10.40;84.40
67769;DHT22;54569;52.018;5.584;2023-04-24T00:22:49;10.40;84.70
67769;DHT22;54569;52.018;5.584;2023-04-24T00:25:15;10.40;84.80
67769;DHT22;54569;52.018;5.584;2023-04-24T00:27:41;10.40;84.60
67769;DHT22;54569;52.018;5.584;2023-04-24T00:30:07;10.40;84.70
67769;DHT22;54569;52.018;5.584;2023-04-24T00:32:33;10.40;84.70
67769;DHT22;54569;52.018;5.584;2023-04-24T00:34:58;10.40;84.60
67769;DHT22;54569;52.018;5.584;2023-04-24T00:37:24;10.40;84.50
67769;DHT22;54569;52.018;5.584;2023-04-24T00:39:50;10.40;84.60
67769;DHT22;54569;52.018;5.584;2023-04-24T00:42:16;10.40;84.50
67769;DHT22;54569;52.018;5.584;2023-04-24T00:44:42;10.40;84.70
67769;DHT22;54569;52.018;5.584;2023-04-24T00:47:07;10.40;84.60
67769;DHT22;54569;52.018;5.584;2023-04-24T00:49:33;10.40;84.90
67769;DHT22;54569;52.018;5.584;2023-04-24T00:51:59;10.40;85.30
67769;DHT22;54569;52.018;5.584;2023-04-24T00:54:25;10.40;85.20
67769;DHT22;54569;52.018;5.584;2023-04-24T00:56:51;10.30;84.50
67769;DHT22;54569;52.018;5.584;2023-04-24T00:59:17;10.30;85.10
67769;DHT22;54569;52.018;5.584;2023-04-24T01:01:44;10.30;84.60
67769;DHT22;54569;52.018;5.584;2023-04-24T01:04:11;10.30;84.90
67769;DHT22;54569;52.018;5.584;2023-04-24T01:06:39;10.30;85.30
67769;DHT22;54569;52.018;5.584;2023-04-24T01:09:05;10.30;85.70
67769;DHT22;54569;52.018;5.584;2023-04-24T01:11:33;10.30;85.00
67769;DHT22;54569;52.018;5.584;2023-04-24T01:13:59;10.20;85.10
67769;DHT22;54569;52.018;5.584;2023-04-24T01:16:25;10.20;85.30
67769;DHT22;54569;52.018;5.584;2023-04-24T01:18:53;10.20;85.10
67769;DHT22;54569;52.018;5.584;2023-04-24T01:21:20;10.10;85.10
67769;DHT22;54569;52.018;5.584;2023-04-24T01:23:46;10.10;85.30
67769;DHT22;54569;52.018;5.584;2023-04-24T01:26:14;10.10;85.30
67769;DHT22;54569;52.018;5.584;2023-04-24T01:28:40;10.10;85.00
67769;DHT22;54569;52.018;5.584;2023-04-24T01:31:06;10.10;85.20
67769;DHT22;54569;52.018;5.584;2023-04-24T01:33:32;10.10;84.90
67769;DHT22;54569;52.018;5.584;2023-04-24T01:35:58;10.10;84.70
67769;DHT22;54569;52.018;5.584;2023-04-24T01:38:24;10.10;85.00
67769;DHT22;54569;52.018;5.584;2023-04-24T01:40:50;10.10;85.50
67769;DHT22;54569;52.018;5.584;2023-04-24T01:43:17;10.10;85.30
67769;DHT22;54569;52.018;5.584;2023-04-24T01:45:43;10.10;85.60
67769;DHT22;54569;52.018;5.584;2023-04-24T01:48:09;10.10;85.30
67769;DHT22;54569;52.018;5.584;2023-04-24T01:50:35;10.10;85.30
67769;DHT22;54569;52.018;5.584;2023-04-24T01:53:02;10.10;85.10
67769;DHT22;54569;52.018;5.584;2023-04-24T01:55:28;10.20;85.10
67769;DHT22;54569;52.018;5.584;2023-04-24T01:57:55;10.20;85.00
67769;DHT22;54569;52.018;5.584;2023-04-24T02:00:22;10.20;84.80
67769;DHT22;54569;52.018;5.584;2023-04-24T02:02:47;10.20;85.20
67769;DHT22;54569;52.018;5.584;2023-04-24T02:05:13;10.30;85.00
67769;DHT22;54569;52.018;5.584;2023-04-24T02:07:39;10.30;85.10
67769;DHT22;54569;52.018;5.584;2023-04-24T02:10:05;10.20;85.20
67769;DHT22;54569;52.018;5.584;2023-04-24T02:12:32;10.30;85.30
67769;DHT22;54569;52.018;5.584;2023-04-24T02:14:58;10.30;85.50
67769;DHT22;54569;52.018;5.584;2023-04-24T02:17:23;10.30;85.50
67769;DHT22;54569;52.018;5.584;2023-04-24T02:19:49;10.30;86.20
67769;DHT22;54569;52.018;5.584;2023-04-24T02:22:16;10.30;86.10
67769;DHT22;54569;52.018;5.584;2023-04-24T02:24:41;10.20;85.80
67769;DHT22;54569;52.018;5.584;2023-04-24T02:27:07;10.30;85.80
67769;DHT22;54569;52.018;5.584;2023-04-24T02:29:33;10.30;85.80
67769;DHT22;54569;52.018;5.584;2023-04-24T02:31:59;10.30;85.70
67769;DHT22;54569;52.018;5.584;2023-04-24T02:34:24;10.30;86.20
67769;DHT22;54569;52.018;5.584;2023-04-24T02:36:50;10.30;86.20
67769;DHT22;54569;52.018;5.584;2023-04-24T02:39:16;10.30;86.40
67769;DHT22;54569;52.018;5.584;2023-04-24T02:41:42;10.30;86.20
67769;DHT22;54569;52.018;5.584;2023-04-24T02:44:08;10.30;85.80
67769;DHT22;54569;52.018;5.584;2023-04-24T02:46:34;10.30;86.20
67769;DHT22;54569;52.018;5.584;2023-04-24T02:49:00;10.30;86.20
67769;DHT22;54569;52.018;5.584;2023-04-24T02:51:25;10.30;86.00
67769;DHT22;54569;52.018;5.584;2023-04-24T02:53:52;10.30;86.00
67769;DHT22;54569;52.018;5.584;2023-04-24T02:56:18;10.30;86.10
67769;DHT22;54569;52.018;5.584;2023-04-24T02:58:44;10.30;86.10
67769;DHT22;54569;52.018;5.584;2023-04-24T03:01:10;10.30;86.20
67769;DHT22;54569;52.018;5.584;2023-04-24T03:03:37;10.30;86.00
67769;DHT22;54569;52.018;5.584;2023-04-24T03:06:02;10.30;85.80
67769;DHT22;54569;52.018;5.584;2023-04-24T03:08:28;10.40;86.00
67769;DHT22;54569;52.018;5.584;2023-04-24T03:10:54;10.40;86.60
67769;DHT22;54569;52.018;5.584;2023-04-24T03:13:19;10.30;86.50
67769;DHT22;54569;52.018;5.584;2023-04-24T03:15:45;10.30;86.50
67769;DHT22;54569;52.018;5.584;2023-04-24T03:18:12;10.30;87.10
67769;DHT22;54569;52.018;5.584;2023-04-24T03:20:38;10.30;86.80
67769;DHT22;54569;52.018;5.584;2023-04-24T03:23:03;10.30;86.80
67769;DHT22;54569;52.018;5.584;2023-04-24T03:25:29;10.30;86.80
67769;DHT22;54569;52.018;5.584;2023-04-24T03:27:56;10.20;87.00
67769;DHT22;54569;52.018;5.584;2023-04-24T03:30:32;10.20;86.80
67769;DHT22;54569;52.018;5.584;2023-04-24T03:33:00;10.20;87.10
67769;DHT22;54569;52.018;5.584;2023-04-24T03:35:29;10.20;86.90
67769;DHT22;54569;52.018;5.584;2023-04-24T03:37:56;10.20;87.10
67769;DHT22;54569;52.018;5.584;2023-04-24T03:40:40;10.20;87.30
67769;DHT22;54569;52.018;5.584;2023-04-24T03:43:18;10.20;86.90
67769;DHT22;54569;52.018;5.584;2023-04-24T03:45:45;10.20;88.00
67769;DHT22;54569;52.018;5.584;2023-04-24T03:48:13;10.20;87.60
67769;DHT22;54569;52.018;5.584;2023-04-24T03:50:38;10.20;87.40
67769;DHT22;54569;52.018;5.584;2023-04-24T03:53:06;10.20;87.10
67769;DHT22;54569;52.018;5.584;2023-04-24T03:55:36;10.20;87.20
67769;DHT22;54569;52.018;5.584;2023-04-24T03:58:02;10.20;87.30
67769;DHT22;54569;52.018;5.584;2023-04-24T04:00:28;10.20;86.90
67769;DHT22;54569;52.018;5.584;2023-04-24T04:03:14;10.20;87.30
67769;DHT22;54569;52.018;5.584;2023-04-24T04:05:40;10.20;87.40
67769;DHT22;54569;52.018;5.584;2023-04-24T04:08:06;10.20;87.70
67769;DHT22;54569;52.018;5.584;2023-04-24T04:10:32;10.10;87.10
67769;DHT22;54569;52.018;5.584;2023-04-24T04:12:58;10.10;87.70
67769;DHT22;54569;52.018;5.584;2023-04-24T04:15:24;10.10;87.30
67769;DHT22;54569;52.018;5.584;2023-04-24T04:17:50;10.10;87.10
67769;DHT22;54569;52.018;5.584;2023-04-24T04:20:15;10.10;87.70
67769;DHT22;54569;52.018;5.584;2023-04-24T04:22:41;10.10;87.30
67769;DHT22;54569;52.018;5.584;2023-04-24T04:25:09;10.10;87.20
67769;DHT22;54569;52.018;5.584;2023-04-24T04:27:35;10.10;87.10
67769;DHT22;54569;52.018;5.584;2023-04-24T04:30:07;10.10;87.10
67769;DHT22;54569;52.018;5.584;2023-04-24T04:32:41;10.10;87.20
67769;DHT22;54569;52.018;5.584;2023-04-24T04:35:07;10.10;87.10
67769;DHT22;54569;52.018;5.584;2023-04-24T04:37:33;10.10;87.10
67769;DHT22;54569;52.018;5.584;2023-04-24T04:40:11;10.10;87.00
67769;DHT22;54569;52.018;5.584;2023-04-24T04:42:46;10.10;87.00
67769;DHT22;54569;52.018;5.584;2023-04-24T04:45:13;10.10;87.00
67769;DHT22;54569;52.018;5.584;2023-04-24T04:48:00;10.10;87.00
67769;DHT22;54569;52.018;5.584;2023-04-24T04:50:28;10.10;86.90
67769;DHT22;54569;52.018;5.584;2023-04-24T04:53:00;10.10;87.50
67769;DHT22;54569;52.018;5.584;2023-04-24T04:55:31;10.20;87.00
67769;DHT22;54569;52.018;5.584;2023-04-24T04:58:07;10.20;87.00
67769;DHT22;54569;52.018;5.584;2023-04-24T05:00:32;10.20;86.90
67769;DHT22;54569;52.018;5.584;2023-04-24T05:03:05;10.20;86.90
67769;DHT22;54569;52.018;5.584;2023-04-24T05:05:31;10.20;86.90
67769;DHT22;54569;52.018;5.584;2023-04-24T05:07:56;10.20;87.00
67769;DHT22;54569;52.018;5.584;2023-04-24T05:10:23;10.10;86.90
67769;DHT22;54569;52.018;5.584;2023-04-24T05:12:52;10.10;86.90
67769;DHT22;54569;52.018;5.584;2023-04-24T05:15:19;10.10;86.90
67769;DHT22;54569;52.018;5.584;2023-04-24T05:17:45;10.10;86.80
67769;DHT22;54569;52.018;5.584;2023-04-24T05:20:13;10.10;86.80
67769;DHT22;54569;52.018;5.584;2023-04-24T05:22:38;10.10;86.70
67769;DHT22;54569;52.018;5.584;2023-04-24T05:25:04;10.10;86.70
67769;DHT22;54569;52.018;5.584;2023-04-24T05:27:57;10.10;86.70
67769;DHT22;54569;52.018;5.584;2023-04-24T05:30:23;10.10;86.70
67769;DHT22;54569;52.018;5.584;2023-04-24T05:32:49;10.20;86.60
67769;DHT22;54569;52.018;5.584;2023-04-24T05:35:15;10.20;86.50
67769;DHT22;54569;52.018;5.584;2023-04-24T05:37:41;10.20;86.40
67769;DHT22;54569;52.018;5.584;2023-04-24T05:40:08;10.30;86.40
67769;DHT22;54569;52.018;5.584;2023-04-24T05:42:34;10.30;86.40
67769;DHT22;54569;52.018;5.584;2023-04-24T05:45:00;10.30;86.40
67769;DHT22;54569;52.018;5.584;2023-04-24T05:47:26;10.30;86.40
67769;DHT22;54569;52.018;5.584;2023-04-24T05:49:52;10.30;86.50
67769;DHT22;54569;52.018;5.584;2023-04-24T05:52:19;10.30;86.50
67769;DHT22;54569;52.018;5.584;2023-04-24T05:54:45;10.30;86.50
67769;DHT22;54569;52.018;5.584;2023-04-24T05:57:13;10.40;86.60
67769;DHT22;54569;52.018;5.584;2023-04-24T05:59:52;10.30;86.60
67769;DHT22;54569;52.018;5.584;2023-04-24T06:02:20;10.40;86.60
67769;DHT22;54569;52.018;5.584;2023-04-24T06:04:46;10.40;86.60
67769;DHT22;54569;52.018;5.584;2023-04-24T06:07:11;10.40;86.60
67769;DHT22;54569;52.018;5.584;2023-04-24T06:09:38;10.40;86.60
67769;DHT22;54569;52.018;5.584;2023-04-24T06:12:04;10.50;86.70
67769;DHT22;54569;52.018;5.584;2023-04-24T06:14:44;10.50;86.70
67769;DHT22;54569;52.018;5.584;2023-04-24T06:17:17;10.50;86.80
67769;DHT22;54569;52.018;5.584;2023-04-24T06:19:44;10.50;86.80
67769;DHT22;54569;52.018;5.584;2023-04-24T06:22:10;10.50;86.80
67769;DHT22;54569;52.018;5.584;2023-04-24T06:24:36;10.40;86.60
67769;DHT22;54569;52.018;5.584;2023-04-24T06:27:02;10.40;86.60
67769;DHT22;54569;52.018;5.584;2023-04-24T06:29:28;10.40;86.70
67769;DHT22;54569;52.018;5.584;2023-04-24T06:31:53;10.40;86.80
67769;DHT22;54569;52.018;5.584;2023-04-24T06:34:19;10.40;87.10
67769;DHT22;54569;52.018;5.584;2023-04-24T06:36:46;10.40;87.10
67769;DHT22;54569;52.018;5.584;2023-04-24T06:39:12;10.30;87.30
67769;DHT22;54569;52.018;5.584;2023-04-24T06:41:38;10.30;87.40
67769;DHT22;54569;52.018;5.584;2023-04-24T06:44:05;10.20;87.60
67769;DHT22;54569;52.018;5.584;2023-04-24T06:46:31;10.20;87.60
67769;DHT22;54569;52.018;5.584;2023-04-24T06:48:56;10.20;87.80
67769;DHT22;54569;52.018;5.584;2023-04-24T06:51:26;10.20;87.90
67769;DHT22;54569;52.018;5.584;2023-04-24T06:53:55;10.10;88.40
67769;DHT22;54569;52.018;5.584;2023-04-24T06:56:22;10.10;88.10
67769;DHT22;54569;52.018;5.584;2023-04-24T06:58:48;10.10;88.00
67769;DHT22;54569;52.018;5.584;2023-04-24T07:01:13;10.00;88.20
67769;DHT22;54569;52.018;5.584;2023-04-24T07:03:39;10.00;88.20
67769;DHT22;54569;52.018;5.584;2023-04-24T07:06:08;10.00;88.30
67769;DHT22;54569;52.018;5.584;2023-04-24T07:08:35;10.00;88.00
67769;DHT22;54569;52.018;5.584;2023-04-24T07:11:01;10.00;88.00
67769;DHT22;54569;52.018;5.584;2023-04-24T07:13:27;10.00;88.50
67769;DHT22;54569;52.018;5.584;2023-04-24T07:15:53;10.00;88.30
67769;DHT22;54569;52.018;5.584;2023-04-24T07:18:23;10.00;88.30
67769;DHT22;54569;52.018;5.584;2023-04-24T07:20:49;10.00;88.50
67769;DHT22;54569;52.018;5.584;2023-04-24T07:23:19;10.00;88.20
67769;DHT22;54569;52.018;5.584;2023-04-24T07:25:44;10.00;88.00
67769;DHT22;54569;52.018;5.584;2023-04-24T07:28:10;10.00;87.90
67769;DHT22;54569;52.018;5.584;2023-04-24T07:30:36;10.00;87.80
67769;DHT22;54569;52.018;5.584;2023-04-24T07:33:01;10.00;87.80
67769;DHT22;54569;52.018;5.584;2023-04-24T07:35:27;10.00;88.00
67769;DHT22;54569;52.018;5.584;2023-04-24T07:37:53;9.90;87.80
67769;DHT22;54569;52.018;5.584;2023-04-24T07:40:20;9.90;87.80
67769;DHT22;54569;52.018;5.584;2023-04-24T07:42:46;9.90;87.50
67769;DHT22;54569;52.018;5.584;2023-04-24T07:45:14;9.90;87.40
67769;DHT22;54569;52.018;5.584;2023-04-24T07:47:41;9.90;87.70
67769;DHT22;54569;52.018;5.584;2023-04-24T07:50:09;9.90;87.80
67769;DHT22;54569;52.018;5.584;2023-04-24T07:52:35;9.80;87.70
67769;DHT22;54569;52.018;5.584;2023-04-24T07:55:02;9.80;87.60
67769;DHT22;54569;52.018;5.584;2023-04-24T07:57:28;9.80;87.50
67769;DHT22;54569;52.018;5.584;2023-04-24T07:59:54;9.90;87.50
67769;DHT22;54569;52.018;5.584;2023-04-24T08:02:20;9.90;87.50
67769;DHT22;54569;52.018;5.584;2023-04-24T08:04:47;9.80;87.40
67769;DHT22;54569;52.018;5.584;2023-04-24T08:07:12;9.80;87.50
67769;DHT22;54569;52.018;5.584;2023-04-24T08:09:38;9.80;87.50
67769;DHT22;54569;52.018;5.584;2023-04-24T08:12:04;9.90;87.50
67769;DHT22;54569;52.018;5.584;2023-04-24T08:14:30;9.80;87.50
67769;DHT22;54569;52.018;5.584;2023-04-24T08:16:55;9.80;87.30
67769;DHT22;54569;52.018;5.584;2023-04-24T08:19:21;9.80;87.30
67769;DHT22;54569;52.018;5.584;2023-04-24T08:21:47;9.80;87.30
67769;DHT22;54569;52.018;5.584;2023-04-24T08:24:13;9.90;87.20
67769;DHT22;54569;52.018;5.584;2023-04-24T08:26:39;9.90;87.30
67769;DHT22;54569;52.018;5.584;2023-04-24T08:29:05;9.90;87.80
67769;DHT22;54569;52.018;5.584;2023-04-24T08:31:32;9.80;88.00
67769;DHT22;54569;52.018;5.584;2023-04-24T08:33:58;9.80;87.80
67769;DHT22;54569;52.018;5.584;2023-04-24T08:36:25;9.90;87.80
67769;DHT22;54569;52.018;5.584;2023-04-24T08:38:51;9.90;87.70
67769;DHT22;54569;52.018;5.584;2023-04-24T08:41:18;10.00;87.60
67769;DHT22;54569;52.018;5.584;2023-04-24T08:43:47;10.00;87.30
67769;DHT22;54569;52.018;5.584;2023-04-24T08:46:15;10.00;87.10
67769;DHT22;54569;52.018;5.584;2023-04-24T08:48:41;10.10;86.70
67769;DHT22;54569;52.018;5.584;2023-04-24T08:51:08;10.10;86.70
67769;DHT22;54569;52.018;5.584;2023-04-24T08:53:35;10.10;86.60
67769;DHT22;54569;52.018;5.584;2023-04-24T08:56:01;10.10;86.90
67769;DHT22;54569;52.018;5.584;2023-04-24T08:58:28;10.00;86.90
67769;DHT22;54569;52.018;5.584;2023-04-24T09:00:55;10.00;87.00
67769;DHT22;54569;52.018;5.584;2023-04-24T09:03:20;10.00;86.90
67769;DHT22;54569;52.018;5.584;2023-04-24T09:05:47;10.10;86.70
67769;DHT22;54569;52.018;5.584;2023-04-24T09:08:17;10.10;86.60
67769;DHT22;54569;52.018;5.584;2023-04-24T09:10:43;10.10;86.40
67769;DHT22;54569;52.018;5.584;2023-04-24T09:13:09;10.20;85.90
67769;DHT22;54569;52.018;5.584;2023-04-24T09:15:36;10.20;85.60
67769;DHT22;54569;52.018;5.584;2023-04-24T09:18:02;10.20;85.20
67769;DHT22;54569;52.018;5.584;2023-04-24T09:20:28;10.20;84.90
67769;DHT22;54569;52.018;5.584;2023-04-24T09:22:55;10.30;84.50
67769;DHT22;54569;52.018;5.584;2023-04-24T09:25:21;10.40;84.20
67769;DHT22;54569;52.018;5.584;2023-04-24T09:27:47;10.40;83.80
67769;DHT22;54569;52.018;5.584;2023-04-24T09:30:13;10.50;83.70
67769;DHT22;54569;52.018;5.584;2023-04-24T09:32:46;10.50;83.40
67769;DHT22;54569;52.018;5.584;2023-04-24T09:35:13;10.50;83.10
67769;DHT22;54569;52.018;5.584;2023-04-24T09:37:41;10.50;83.20
67769;DHT22;54569;52.018;5.584;2023-04-24T09:40:12;10.50;83.20
67769;DHT22;54569;52.018;5.584;2023-04-24T09:42:39;10.40;83.20
67769;DHT22;54569;52.018;5.584;2023-04-24T09:45:09;10.40;83.00
67769;DHT22;54569;52.018;5.584;2023-04-24T09:47:39;10.40;83.00
67769;DHT22;54569;52.018;5.584;2023-04-24T09:50:15;10.50;83.00
67769;DHT22;54569;52.018;5.584;2023-04-24T09:52:47;10.50;82.80
67769;DHT22;54569;52.018;5.584;2023-04-24T09:55:21;10.70;82.60
67769;DHT22;54569;52.018;5.584;2023-04-24T09:57:57;10.90;81.70
67769;DHT22;54569;52.018;5.584;2023-04-24T10:00:25;11.20;80.90
67769;DHT22;54569;52.018;5.584;2023-04-24T10:02:58;11.40;80.10
67769;DHT22;54569;52.018;5.584;2023-04-24T10:05:28;11.60;79.60
67769;DHT22;54569;52.018;5.584;2023-04-24T10:08:05;11.70;78.90
67769;DHT22;54569;52.018;5.584;2023-04-24T10:10:32;11.80;78.60
67769;DHT22;54569;52.018;5.584;2023-04-24T10:12:59;12.00;77.70
67769;DHT22;54569;52.018;5.584;2023-04-24T10:15:26;12.10;77.60
67769;DHT22;54569;52.018;5.584;2023-04-24T10:17:52;12.10;76.70
67769;DHT22;54569;52.018;5.584;2023-04-24T10:20:20;11.90;76.40
67769;DHT22;54569;52.018;5.584;2023-04-24T10:22:48;11.70;76.20
67769;DHT22;54569;52.018;5.584;2023-04-24T10:25:22;11.60;76.90
67769;DHT22;54569;52.018;5.584;2023-04-24T10:27:49;11.60;76.90
67769;DHT22;54569;52.018;5.584;2023-04-24T10:30:16;11.70;77.00
67769;DHT22;54569;52.018;5.584;2023-04-24T10:32:42;11.70;76.90
67769;DHT22;54569;52.018;5.584;2023-04-24T10:35:09;11.70;76.80
67769;DHT22;54569;52.018;5.584;2023-04-24T10:37:45;12.00;76.40
67769;DHT22;54569;52.018;5.584;2023-04-24T10:40:16;12.10;75.60
67769;DHT22;54569;52.018;5.584;2023-04-24T10:42:42;12.10;75.40
67769;DHT22;54569;52.018;5.584;2023-04-24T10:45:22;11.90;75.00
67769;DHT22;54569;52.018;5.584;2023-04-24T10:48:02;11.60;75.30
67769;DHT22;54569;52.018;5.584;2023-04-24T10:50:29;11.20;76.00
67769;DHT22;54569;52.018;5.584;2023-04-24T10:53:16;11.00;77.00
67769;DHT22;54569;52.018;5.584;2023-04-24T10:56:04;10.80;76.80
67769;DHT22;54569;52.018;5.584;2023-04-24T10:58:50;10.90;78.00
67769;DHT22;54569;52.018;5.584;2023-04-24T11:01:29;11.20;77.80
67769;DHT22;54569;52.018;5.584;2023-04-24T11:04:00;11.40;76.70
67769;DHT22;54569;52.018;5.584;2023-04-24T11:06:36;11.50;76.20
67769;DHT22;54569;52.018;5.584;2023-04-24T11:09:10;11.70;75.50
67769;DHT22;54569;52.018;5.584;2023-04-24T11:11:38;11.70;74.60
67769;DHT22;54569;52.018;5.584;2023-04-24T11:14:09;11.80;74.50
67769;DHT22;54569;52.018;5.584;2023-04-24T11:16:53;11.90;74.50
67769;DHT22;54569;52.018;5.584;2023-04-24T11:19:21;12.00;74.00
67769;DHT22;54569;52.018;5.584;2023-04-24T11:22:04;12.00;74.00
67769;DHT22;54569;52.018;5.584;2023-04-24T11:27:19;12.30;72.90
67769;DHT22;54569;52.018;5.584;2023-04-24T11:32:41;12.90;70.90
67769;DHT22;54569;52.018;5.584;2023-04-24T11:35:28;12.70;71.10
67769;DHT22;54569;52.018;5.584;2023-04-24T11:37:56;12.40;70.50
67769;DHT22;54569;52.018;5.584;2023-04-24T11:40:23;12.20;72.70
67769;DHT22;54569;52.018;5.584;2023-04-24T11:42:52;11.90;73.50
67769;DHT22;54569;52.018;5.584;2023-04-24T11:45:26;11.70;74.40
67769;DHT22;54569;52.018;5.584;2023-04-24T11:47:52;11.40;75.50
67769;DHT22;54569;52.018;5.584;2023-04-24T11:50:21;11.30;76.50
67769;DHT22;54569;52.018;5.584;2023-04-24T11:52:49;11.20;77.10
67769;DHT22;54569;52.018;5.584;2023-04-24T11:57:45;11.10;78.10
67769;DHT22;54569;52.018;5.584;2023-04-24T12:00:18;11.00;78.00
67769;DHT22;54569;52.018;5.584;2023-04-24T12:02:44;10.80;78.60
67769;DHT22;54569;52.018;5.584;2023-04-24T12:05:27;10.80;78.70
67769;DHT22;54569;52.018;5.584;2023-04-24T12:07:53;10.80;78.50
67769;DHT22;54569;52.018;5.584;2023-04-24T12:10:24;10.90;78.70
67769;DHT22;54569;52.018;5.584;2023-04-24T12:12:50;11.20;78.20
67769;DHT22;54569;52.018;5.584;2023-04-24T12:15:20;11.50;76.60
67769;DHT22;54569;52.018;5.584;2023-04-24T12:17:46;11.90;75.50
67769;DHT22;54569;52.018;5.584;2023-04-24T12:20:13;12.30;74.50
67769;DHT22;54569;52.018;5.584;2023-04-24T12:22:56;12.60;73.10
67769;DHT22;54569;52.018;5.584;2023-04-24T12:25:32;12.80;72.60
67769;DHT22;54569;52.018;5.584;2023-04-24T12:30:50;12.70;71.20
67769;DHT22;54569;52.018;5.584;2023-04-24T12:33:20;12.50;71.00
67769;DHT22;54569;52.018;5.584;2023-04-24T12:35:46;12.30;72.20
67769;DHT22;54569;52.018;5.584;2023-04-24T12:38:13;12.10;72.30
67769;DHT22;54569;52.018;5.584;2023-04-24T12:40:42;12.00;72.60
67769;DHT22;54569;52.018;5.584;2023-04-24T12:43:16;11.90;72.90
67769;DHT22;54569;52.018;5.584;2023-04-24T12:45:42;11.90;73.10
67769;DHT22;54569;52.018;5.584;2023-04-24T12:48:08;12.00;72.90
67769;DHT22;54569;52.018;5.584;2023-04-24T12:50:33;12.10;72.60
67769;DHT22;54569;52.018;5.584;2023-04-24T12:53:00;12.10;72.30
67769;DHT22;54569;52.018;5.584;2023-04-24T12:55:25;12.20;72.40
67769;DHT22;54569;52.018;5.584;2023-04-24T12:57:51;12.30;72.40
67769;DHT22;54569;52.018;5.584;2023-04-24T13:00:18;12.40;72.20
67769;DHT22;54569;52.018;5.584;2023-04-24T13:02:44;12.50;71.60
67769;DHT22;54569;52.018;5.584;2023-04-24T13:05:10;12.50;70.80
67769;DHT22;54569;52.018;5.584;2023-04-24T13:07:36;12.30;70.90
67769;DHT22;54569;52.018;5.584;2023-04-24T13:10:02;12.10;71.30
67769;DHT22;54569;52.018;5.584;2023-04-24T13:12:28;12.00;71.60
67769;DHT22;54569;52.018;5.584;2023-04-24T13:14:54;11.90;71.80
67769;DHT22;54569;52.018;5.584;2023-04-24T13:17:19;11.90;71.80
67769;DHT22;54569;52.018;5.584;2023-04-24T13:19:45;11.80;71.70
67769;DHT22;54569;52.018;5.584;2023-04-24T13:22:12;11.80;71.60
67769;DHT22;54569;52.018;5.584;2023-04-24T13:24:38;11.90;71.60
67769;DHT22;54569;52.018;5.584;2023-04-24T13:27:06;11.80;71.30
67769;DHT22;54569;52.018;5.584;2023-04-24T13:29:32;11.80;71.40
67769;DHT22;54569;52.018;5.584;2023-04-24T13:31:57;11.80;71.60
67769;DHT22;54569;52.018;5.584;2023-04-24T13:34:24;11.70;71.60
67769;DHT22;54569;52.018;5.584;2023-04-24T13:36:52;11.70;72.10
67769;DHT22;54569;52.018;5.584;2023-04-24T13:39:17;11.60;72.50
67769;DHT22;54569;52.018;5.584;2023-04-24T13:41:43;11.90;72.70
67769;DHT22;54569;52.018;5.584;2023-04-24T13:44:09;12.30;71.60
67769;DHT22;54569;52.018;5.584;2023-04-24T13:46:35;12.50;70.20
67769;DHT22;54569;52.018;5.584;2023-04-24T13:49:02;12.50;68.80
67769;DHT22;54569;52.018;5.584;2023-04-24T13:51:29;12.70;68.70
67769;DHT22;54569;52.018;5.584;2023-04-24T13:53:55;12.80;68.30
67769;DHT22;54569;52.018;5.584;2023-04-24T13:56:22;12.90;68.00
67769;DHT22;54569;52.018;5.584;2023-04-24T13:58:48;12.90;68.20
67769;DHT22;54569;52.018;5.584;2023-04-24T14:01:14;12.80;67.90
67769;DHT22;54569;52.018;5.584;2023-04-24T14:03:41;12.80;68.10
67769;DHT22;54569;52.018;5.584;2023-04-24T14:06:07;12.90;67.30
67769;DHT22;54569;52.018;5.584;2023-04-24T14:08:32;12.90;66.40
67769;DHT22;54569;52.018;5.584;2023-04-24T14:10:58;13.00;66.70
67769;DHT22;54569;52.018;5.584;2023-04-24T14:13:24;13.00;66.60
67769;DHT22;54569;52.018;5.584;2023-04-24T14:15:50;13.10;66.70
67769;DHT22;54569;52.018;5.584;2023-04-24T14:18:16;13.20;66.90
67769;DHT22;54569;52.018;5.584;2023-04-24T14:20:42;13.30;67.00
67769;DHT22;54569;52.018;5.584;2023-04-24T14:23:08;13.30;66.20
67769;DHT22;54569;52.018;5.584;2023-04-24T14:25:33;13.20;66.20
67769;DHT22;54569;52.018;5.584;2023-04-24T14:27:59;13.10;66.70
67769;DHT22;54569;52.018;5.584;2023-04-24T14:30:25;13.10;66.20
67769;DHT22;54569;52.018;5.584;2023-04-24T14:32:51;13.10;65.80
67769;DHT22;54569;52.018;5.584;2023-04-24T14:35:16;13.10;65.50
67769;DHT22;54569;52.018;5.584;2023-04-24T14:37:42;13.00;65.70
67769;DHT22;54569;52.018;5.584;2023-04-24T14:40:08;12.90;65.50
67769;DHT22;54569;52.018;5.584;2023-04-24T14:42:34;12.80;66.00
67769;DHT22;54569;52.018;5.584;2023-04-24T14:45:01;12.70;65.90
67769;DHT22;54569;52.018;5.584;2023-04-24T14:47:26;12.70;65.60
67769;DHT22;54569;52.018;5.584;2023-04-24T14:49:52;12.70;65.80
67769;DHT22;54569;52.018;5.584;2023-04-24T14:52:18;12.60;65.90
67769;DHT22;54569;52.018;5.584;2023-04-24T14:54:45;12.50;66.30
67769;DHT22;54569;52.018;5.584;2023-04-24T14:57:10;12.50;65.80
67769;DHT22;54569;52.018;5.584;2023-04-24T14:59:36;12.40;66.60
67769;DHT22;54569;52.018;5.584;2023-04-24T15:02:02;12.60;66.20
67769;DHT22;54569;52.018;5.584;2023-04-24T15:04:28;12.60;65.90
67769;DHT22;54569;52.018;5.584;2023-04-24T15:06:55;12.50;66.00
67769;DHT22;54569;52.018;5.584;2023-04-24T15:09:21;12.50;65.70
67769;DHT22;54569;52.018;5.584;2023-04-24T15:11:48;12.30;65.40
67769;DHT22;54569;52.018;5.584;2023-04-24T15:14:14;12.10;65.40
67769;DHT22;54569;52.018;5.584;2023-04-24T15:16:40;11.90;66.10
67769;DHT22;54569;52.018;5.584;2023-04-24T15:19:06;11.90;66.70
67769;DHT22;54569;52.018;5.584;2023-04-24T15:21:32;11.90;67.40
67769;DHT22;54569;52.018;5.584;2023-04-24T15:23:58;11.90;67.30
67769;DHT22;54569;52.018;5.584;2023-04-24T15:26:24;12.00;67.40
67769;DHT22;54569;52.018;5.584;2023-04-24T15:28:51;12.00;67.20
67769;DHT22;54569;52.018;5.584;2023-04-24T15:31:17;11.90;67.50
67769;DHT22;54569;52.018;5.584;2023-04-24T15:33:43;12.00;67.90
67769;DHT22;54569;52.018;5.584;2023-04-24T15:36:09;12.00;68.00
67769;DHT22;54569;52.018;5.584;2023-04-24T15:38:36;12.10;68.00
67769;DHT22;54569;52.018;5.584;2023-04-24T15:41:03;12.10;67.90
67769;DHT22;54569;52.018;5.584;2023-04-24T15:43:29;12.10;68.00
67769;DHT22;54569;52.018;5.584;2023-04-24T15:45:57;12.20;67.90